createdAt,value
2023-04-15T00:01:07.091Z,9.73
2023-04-15T00:03:34.991Z,9.74
2023-04-15T00:06:02.565Z,9.71
2023-04-15T00:08:30.226Z,9.69
2023-04-15T00:10:59.512Z,9.64
2023-04-15T00:13:26.389Z,9.58
2023-04-15T00:15:53.527Z,9.57
2023-04-15T00:18:20.455Z,9.58
2023-04-15T00:20:47.934Z,9.57
2023-04-15T00:23:14.806Z,9.55
2023-04-15T00:25:41.965Z,9.54
2023-04-15T00:28:09.486Z,9.55
2023-04-15T00:30:36.644Z,9.55
2023-04-15T00:35:33.782Z,9.57
2023-04-15T00:38:00.722Z,9.57
2023-04-15T00:40:27.991Z,9.60
2023-04-15T00:42:55.204Z,9.62
2023-04-15T00:45:22.688Z,9.64
2023-04-15T00:47:51.315Z,9.66
2023-04-15T00:50:18.576Z,9.65
2023-04-15T00:52:45.658Z,9.63
2023-04-15T00:55:13.271Z,9.64
2023-04-15T00:57:40.752Z,9.64
2023-04-15T01:00:09.319Z,9.64
2023-04-15T01:02:36.979Z,9.64
2023-04-15T01:05:05.173Z,9.64
2023-04-15T01:07:32.251Z,9.64
2023-04-15T01:09:59.825Z,9.63
2023-04-15T01:12:28.021Z,9.61
2023-04-15T01:14:56.787Z,9.58
2023-04-15T01:17:25.545Z,9.54
2023-04-15T01:19:53.203Z,9.52
2023-04-15T01:22:21.160Z,9.49
2023-04-15T01:24:57.176Z,9.46
2023-04-15T01:27:24.954Z,9.43
2023-04-15T01:29:52.924Z,9.41
2023-04-15T01:32:20.034Z,9.33
2023-04-15T01:34:47.127Z,9.29
2023-04-15T01:37:14.140Z,9.28
2023-04-15T01:39:41.251Z,9.27
2023-04-15T01:42:08.486Z,9.27
2023-04-15T01:44:35.730Z,9.24
2023-04-15T01:47:02.652Z,9.25
2023-04-15T01:49:29.770Z,9.23
2023-04-15T01:51:56.632Z,9.21
2023-04-15T01:54:23.814Z,9.19
2023-04-15T01:56:50.661Z,9.14
2023-04-15T01:59:18.025Z,9.11
2023-04-15T02:01:48.199Z,9.05
2023-04-15T02:04:17.401Z,9.01
2023-04-15T02:06:44.545Z,8.99
2023-04-15T02:09:11.858Z,8.97
2023-04-15T02:11:39.322Z,8.98
2023-04-15T02:14:06.517Z,8.99
2023-04-15T02:16:33.971Z,8.98
2023-04-15T02:19:01.456Z,8.94
2023-04-15T02:21:28.586Z,8.91
2023-04-15T02:23:56.075Z,8.88
2023-04-15T02:26:23.393Z,8.87
2023-04-15T02:28:51.454Z,8.88
2023-04-15T02:31:18.437Z,8.88
2023-04-15T02:33:45.832Z,8.90
2023-04-15T02:36:12.872Z,8.91
2023-04-15T02:38:43.172Z,8.92
2023-04-15T02:41:10.641Z,8.92
2023-04-15T02:43:39.949Z,8.92
2023-04-15T02:46:07.328Z,8.85
2023-04-15T02:48:34.372Z,8.81
2023-04-15T02:51:31.348Z,8.76
2023-04-15T02:53:58.419Z,8.77
2023-04-15T02:56:25.836Z,8.74
2023-04-15T02:58:56.157Z,8.73
2023-04-15T03:01:23.380Z,8.71
2023-04-15T03:03:50.265Z,8.70
2023-04-15T03:06:17.542Z,8.68
2023-04-15T03:08:44.575Z,8.66
2023-04-15T03:11:12.472Z,8.65
2023-04-15T03:16:27.566Z,8.62
2023-04-15T03:18:54.732Z,8.60
2023-04-15T03:21:21.596Z,8.57
2023-04-15T03:23:48.931Z,8.52
2023-04-15T03:26:31.958Z,8.47
2023-04-15T03:28:59.556Z,8.47
2023-04-15T03:31:26.746Z,8.43
2023-04-15T03:33:53.933Z,8.41
2023-04-15T03:36:20.797Z,8.40
2023-04-15T03:38:49.402Z,8.38
2023-04-15T03:41:16.259Z,8.41
2023-04-15T03:43:43.445Z,8.46
2023-04-15T03:46:10.441Z,8.45
2023-04-15T03:48:37.655Z,8.43
2023-04-15T03:51:04.505Z,8.43
2023-04-15T03:53:31.723Z,8.40
2023-04-15T03:55:58.601Z,8.36
2023-04-15T03:58:25.939Z,8.32
2023-04-15T04:00:52.895Z,8.31
2023-04-15T04:03:20.201Z,8.30
2023-04-15T04:05:47.382Z,8.25
2023-04-15T04:08:16.296Z,8.22
2023-04-15T04:10:43.149Z,8.18
2023-04-15T04:13:10.292Z,8.13
2023-04-15T04:15:37.247Z,8.11
2023-04-15T04:18:04.508Z,8.12
2023-04-15T04:20:34.093Z,8.13
2023-04-15T04:23:01.401Z,8.14
2023-04-15T04:25:28.229Z,8.16
2023-04-15T04:27:55.340Z,8.19
2023-04-15T04:30:22.323Z,8.22
2023-04-15T04:32:50.879Z,8.23
2023-04-15T04:35:17.843Z,8.24
2023-04-15T04:37:44.958Z,8.26
2023-04-15T04:40:12.414Z,8.26
2023-04-15T04:42:40.234Z,8.25
2023-04-15T04:45:07.684Z,8.25
2023-04-15T04:47:34.918Z,8.26
2023-04-15T04:50:01.877Z,8.30
2023-04-15T04:52:29.128Z,8.29
2023-04-15T04:54:56.328Z,8.33
2023-04-15T04:57:23.528Z,8.34
2023-04-15T04:59:50.368Z,8.35
2023-04-15T05:02:17.751Z,8.30
2023-04-15T05:04:44.765Z,8.32
2023-04-15T05:07:12.278Z,8.35
2023-04-15T05:09:39.196Z,8.34
2023-04-15T05:12:06.677Z,8.33
2023-04-15T05:14:33.892Z,8.38
2023-04-15T05:17:01.123Z,8.37
2023-04-15T05:19:28.006Z,8.40
2023-04-15T05:21:55.350Z,8.45
2023-04-15T05:24:22.515Z,8.50
2023-04-15T05:26:49.639Z,8.56
2023-04-15T05:29:16.874Z,8.64
2023-04-15T05:31:44.401Z,8.67
2023-04-15T05:34:12.351Z,8.72
2023-04-15T05:36:39.648Z,8.69
2023-04-15T05:39:07.200Z,8.65
2023-04-15T05:41:34.694Z,8.63
2023-04-15T05:44:02.096Z,8.65
2023-04-15T05:46:29.265Z,8.69
2023-04-15T05:48:56.798Z,8.74
2023-04-15T05:51:24.065Z,8.77
2023-04-15T05:53:51.053Z,8.81
2023-04-15T05:56:18.255Z,8.87
2023-04-15T05:58:45.144Z,8.91
2023-04-15T06:01:12.498Z,8.87
2023-04-15T06:03:39.850Z,8.79
2023-04-15T06:06:07.772Z,8.76
2023-04-15T06:08:34.679Z,8.74
2023-04-15T06:11:01.933Z,8.73
2023-04-15T06:13:29.488Z,8.67
2023-04-15T06:15:56.729Z,8.68
2023-04-15T06:18:23.653Z,8.68
2023-04-15T06:20:51.749Z,8.74
2023-04-15T06:23:18.639Z,8.80
2023-04-15T06:25:45.942Z,8.88
2023-04-15T06:28:13.055Z,8.92
2023-04-15T06:30:40.593Z,8.98
2023-04-15T06:33:07.558Z,8.99
2023-04-15T06:35:34.905Z,9.03
2023-04-15T06:38:01.802Z,9.12
2023-04-15T06:40:28.963Z,9.23
2023-04-15T06:42:56.093Z,9.36
2023-04-15T06:45:23.301Z,9.51
2023-04-15T06:47:50.203Z,9.63
2023-04-15T06:50:17.573Z,9.79
2023-04-15T06:52:44.451Z,9.81
2023-04-15T06:55:11.664Z,9.96
2023-04-15T06:57:38.534Z,10.07
2023-04-15T07:00:06.417Z,10.13
2023-04-15T07:02:33.642Z,10.11
2023-04-15T07:05:00.873Z,10.10
2023-04-15T07:07:27.842Z,10.13
2023-04-15T07:09:54.997Z,10.14
2023-04-15T07:12:22.021Z,10.12
2023-04-15T07:14:49.641Z,10.17
2023-04-15T07:17:16.762Z,10.18
2023-04-15T07:19:43.898Z,10.18
2023-04-15T07:22:10.736Z,10.16
2023-04-15T07:24:37.902Z,10.16
2023-04-15T07:27:04.795Z,10.27
2023-04-15T07:29:32.203Z,10.32
2023-04-15T07:31:59.123Z,10.29
2023-04-15T07:34:26.410Z,10.23
2023-04-15T07:36:53.279Z,10.24
2023-04-15T07:39:20.453Z,10.32
2023-04-15T07:41:47.468Z,10.48
2023-04-15T07:44:14.763Z,10.72
2023-04-15T07:46:42.010Z,10.99
2023-04-15T07:49:09.343Z,11.22
2023-04-15T07:51:36.415Z,11.44
2023-04-15T07:54:04.357Z,11.52
2023-04-15T07:56:31.322Z,11.70
2023-04-15T07:58:58.439Z,11.78
2023-04-15T08:01:25.312Z,11.88
2023-04-15T08:03:52.923Z,12.06
2023-04-15T08:06:19.932Z,12.58
2023-04-15T08:08:47.206Z,13.16
2023-04-15T08:11:14.611Z,13.35
2023-04-15T08:13:41.840Z,13.14
2023-04-15T08:16:19.024Z,13.25
2023-04-15T08:18:48.055Z,13.41
2023-04-15T08:21:16.502Z,13.67
2023-04-15T08:23:44.530Z,14.29
2023-04-15T08:26:11.841Z,15.39
2023-04-15T08:28:40.761Z,16.62
2023-04-15T08:31:08.171Z,17.61
2023-04-15T08:33:35.467Z,18.56
2023-04-15T08:36:02.373Z,19.34
2023-04-15T08:38:29.528Z,20.01
2023-04-15T08:40:58.812Z,20.74
2023-04-15T08:43:33.725Z,20.99
2023-04-15T08:46:02.020Z,20.08
2023-04-15T08:48:29.991Z,19.50
2023-04-15T08:50:57.356Z,18.98
2023-04-15T08:53:25.484Z,18.21
2023-04-15T08:55:53.085Z,17.30
2023-04-15T08:58:20.541Z,16.52
2023-04-15T09:00:48.809Z,16.15
2023-04-15T09:03:17.680Z,15.87
2023-04-15T09:05:45.584Z,15.23
2023-04-15T09:08:12.918Z,15.13
2023-04-15T09:10:39.768Z,14.83
2023-04-15T09:13:07.220Z,14.37
2023-04-15T09:15:38.529Z,14.05
2023-04-15T09:18:06.920Z,13.66
2023-04-15T09:20:40.990Z,13.36
2023-04-15T09:23:15.237Z,13.20
2023-04-15T09:25:42.720Z,13.17
2023-04-15T09:28:10.848Z,13.24
2023-04-15T09:30:37.892Z,13.23
2023-04-15T09:33:08.372Z,13.09
2023-04-15T09:35:38.562Z,12.89
2023-04-15T09:38:10.454Z,12.92
2023-04-15T09:40:39.264Z,12.92
2023-04-15T09:43:07.731Z,13.06
2023-04-15T09:45:37.490Z,13.24
2023-04-15T09:48:31.276Z,13.60
2023-04-15T09:50:59.152Z,13.96
2023-04-15T09:53:26.599Z,14.26
2023-04-15T09:55:56.353Z,14.89
2023-04-15T09:58:25.308Z,15.59
2023-04-15T10:00:53.908Z,16.07
2023-04-15T10:03:23.961Z,16.28
2023-04-15T10:05:53.108Z,16.46
2023-04-15T10:08:22.529Z,16.29
2023-04-15T10:10:49.657Z,16.00
2023-04-15T10:13:22.589Z,15.96
2023-04-15T10:16:05.371Z,15.85
2023-04-15T10:18:35.798Z,16.27
2023-04-15T10:21:02.737Z,16.85
2023-04-15T10:23:30.509Z,17.40
2023-04-15T10:25:59.004Z,18.01
2023-04-15T10:28:26.736Z,18.11
2023-04-15T10:30:53.829Z,17.86
2023-04-15T10:33:23.294Z,17.34
2023-04-15T10:35:51.785Z,16.90
2023-04-15T10:38:43.370Z,16.61
2023-04-15T10:41:26.939Z,16.47
2023-04-15T10:43:56.200Z,16.32
2023-04-15T10:46:36.820Z,16.29
2023-04-15T10:49:13.672Z,16.51
2023-04-15T10:51:46.874Z,17.54
2023-04-15T10:54:31.176Z,18.54
2023-04-15T10:57:03.582Z,19.57
2023-04-15T10:59:31.585Z,20.01
2023-04-15T11:02:02.906Z,19.81
2023-04-15T11:04:55.108Z,19.04
2023-04-15T11:07:47.162Z,18.21
2023-04-15T11:10:14.327Z,17.53
2023-04-15T11:12:42.119Z,16.52
2023-04-15T11:15:30.655Z,15.88
2023-04-15T11:17:59.137Z,15.56
2023-04-15T11:20:27.183Z,15.33
2023-04-15T11:23:14.655Z,14.99
2023-04-15T11:25:43.287Z,14.20
2023-04-15T11:28:12.050Z,13.67
2023-04-15T11:30:40.562Z,13.39
2023-04-15T11:33:10.117Z,12.89
2023-04-15T11:35:37.752Z,12.61
2023-04-15T11:38:06.302Z,12.31
2023-04-15T11:40:33.600Z,11.98
2023-04-15T11:43:10.797Z,11.69
2023-04-15T11:45:47.900Z,11.56
2023-04-15T11:48:14.800Z,11.37
2023-04-15T11:50:41.997Z,10.97
2023-04-15T11:53:12.869Z,10.74
2023-04-15T11:55:52.753Z,10.71
2023-04-15T11:58:24.825Z,10.90
2023-04-15T12:01:00.193Z,10.98
2023-04-15T12:03:28.705Z,10.91
2023-04-15T12:06:21.422Z,10.68
2023-04-15T12:09:06.550Z,10.63
2023-04-15T12:11:50.207Z,10.72
2023-04-15T12:14:33.602Z,10.70
2023-04-15T12:17:05.424Z,10.93
2023-04-15T12:19:35.714Z,11.10
2023-04-15T12:22:09.051Z,11.31
2023-04-15T12:24:37.119Z,11.34
2023-04-15T12:27:06.192Z,11.59
2023-04-15T12:29:34.501Z,11.62
2023-04-15T12:32:12.977Z,11.51
2023-04-15T12:34:44.951Z,11.77
2023-04-15T12:37:14.356Z,11.98
2023-04-15T12:39:43.781Z,12.10
2023-04-15T12:42:11.699Z,12.12
2023-04-15T12:44:39.634Z,11.77
2023-04-15T12:47:07.805Z,11.68
2023-04-15T12:49:35.127Z,11.75
2023-04-15T12:52:03.509Z,11.98
2023-04-15T12:54:31.553Z,11.82
2023-04-15T12:56:59.540Z,11.74
2023-04-15T12:59:26.751Z,11.36
2023-04-15T13:01:54.413Z,10.78
2023-04-15T13:04:22.408Z,10.44
2023-04-15T13:06:50.487Z,10.47
2023-04-15T13:09:17.373Z,10.60
2023-04-15T13:11:45.873Z,10.59
2023-04-15T13:14:13.097Z,10.63
2023-04-15T13:16:41.526Z,10.53
2023-04-15T13:19:08.693Z,10.50
2023-04-15T13:21:36.364Z,10.49
2023-04-15T13:24:04.929Z,10.42
2023-04-15T13:26:32.857Z,10.45
2023-04-15T13:28:59.941Z,10.44
2023-04-15T13:31:27.344Z,10.48
2023-04-15T13:33:54.452Z,10.44
2023-04-15T13:36:21.657Z,10.50
2023-04-15T13:38:50.938Z,10.58
2023-04-15T13:41:18.841Z,10.59
2023-04-15T13:43:45.716Z,10.49
2023-04-15T13:46:13.081Z,10.38
2023-04-15T13:48:40.180Z,9.85
2023-04-15T13:51:07.297Z,9.06
2023-04-15T13:53:38.942Z,8.51
2023-04-15T13:56:10.101Z,8.04
2023-04-15T13:58:37.886Z,7.77
2023-04-15T14:01:06.986Z,7.56
2023-04-15T14:03:37.548Z,7.35
2023-04-15T14:06:06.233Z,7.29
2023-04-15T14:08:33.382Z,7.23
2023-04-15T14:11:00.835Z,7.18
2023-04-15T14:13:27.924Z,7.11
2023-04-15T14:15:55.151Z,7.06
2023-04-15T14:18:22.090Z,7.01
2023-04-15T14:20:49.269Z,7.00
2023-04-15T14:23:16.302Z,6.97
2023-04-15T14:25:44.171Z,6.92
2023-04-15T14:28:12.423Z,6.90
2023-04-15T14:30:39.671Z,6.89
2023-04-15T14:33:06.489Z,6.87
2023-04-15T14:35:33.728Z,6.87
2023-04-15T14:38:00.700Z,6.89
2023-04-15T14:40:27.892Z,6.95
2023-04-15T14:42:54.714Z,7.03
2023-04-15T14:45:21.814Z,7.14
2023-04-15T14:47:48.923Z,7.25
2023-04-15T14:50:17.812Z,7.39
2023-04-15T14:52:44.688Z,7.46
2023-04-15T14:55:13.009Z,7.48
2023-04-15T14:57:41.502Z,7.55
2023-04-15T15:00:10.771Z,7.60
2023-04-15T15:02:40.518Z,7.72
2023-04-15T15:05:09.980Z,7.84
2023-04-15T15:07:38.457Z,7.91
2023-04-15T15:10:06.250Z,7.96
2023-04-15T15:12:34.005Z,7.95
2023-04-15T15:15:03.084Z,7.94
2023-04-15T15:17:32.345Z,8.01
2023-04-15T15:19:59.843Z,8.08
2023-04-15T15:22:26.820Z,8.16
2023-04-15T15:24:54.016Z,8.25
2023-04-15T15:27:21.236Z,8.30
2023-04-15T15:29:49.085Z,8.37
2023-04-15T15:32:16.155Z,8.45
2023-04-15T15:34:43.333Z,8.58
2023-04-15T15:37:10.340Z,8.71
2023-04-15T15:39:37.545Z,8.83
2023-04-15T15:42:04.472Z,8.88
2023-04-15T15:44:33.021Z,8.93
2023-04-15T15:47:01.518Z,8.99
2023-04-15T15:49:29.054Z,9.01
2023-04-15T15:51:56.339Z,9.01
2023-04-15T15:54:24.535Z,9.02
2023-04-15T15:56:51.383Z,9.06
2023-04-15T15:59:18.611Z,9.02
2023-04-15T16:01:45.588Z,9.03
2023-04-15T16:04:12.971Z,9.05
2023-04-15T16:06:40.851Z,9.10
2023-04-15T16:09:08.011Z,9.13
2023-04-15T16:11:34.964Z,9.16
2023-04-15T16:14:02.237Z,9.18
2023-04-15T16:16:30.120Z,9.15
2023-04-15T16:18:58.193Z,9.16
2023-04-15T16:21:26.120Z,9.16
2023-04-15T16:23:53.949Z,9.14
2023-04-15T16:26:20.847Z,9.08
2023-04-15T16:28:47.997Z,9.01
2023-04-15T16:31:14.881Z,8.93
2023-04-15T16:33:42.035Z,8.89
2023-04-15T16:36:08.845Z,8.78
2023-04-15T16:38:35.994Z,8.80
2023-04-15T16:41:02.964Z,8.78
2023-04-15T16:43:30.212Z,8.82
2023-04-15T16:45:57.147Z,8.82
2023-04-15T16:48:24.341Z,8.82
2023-04-15T16:50:51.218Z,8.80
2023-04-15T16:53:18.418Z,8.80
2023-04-15T16:55:45.302Z,8.76
2023-04-15T16:58:12.429Z,8.75
2023-04-15T17:00:39.604Z,8.64
2023-04-15T17:03:06.964Z,8.60
2023-04-15T17:05:34.052Z,8.55
2023-04-15T17:08:01.433Z,8.41
2023-04-15T17:10:28.425Z,8.37
2023-04-15T17:12:56.990Z,8.35
2023-04-15T17:15:24.064Z,8.26
2023-04-15T17:17:51.299Z,8.23
2023-04-15T17:20:18.249Z,8.16
2023-04-15T17:22:46.089Z,8.10
2023-04-15T17:25:14.058Z,8.02
2023-04-15T17:27:41.866Z,7.93
2023-04-15T17:30:09.566Z,7.81
2023-04-15T17:32:37.344Z,7.69
2023-04-15T17:35:06.548Z,7.57
2023-04-15T17:37:34.491Z,7.44
2023-04-15T17:40:01.981Z,7.33
2023-04-15T17:42:29.166Z,7.21
2023-04-15T17:44:56.066Z,7.07
2023-04-15T17:47:23.304Z,6.97
2023-04-15T17:49:50.173Z,6.87
2023-04-15T17:52:17.686Z,6.80
2023-04-15T17:54:46.079Z,6.73
2023-04-15T17:57:13.275Z,6.62
2023-04-15T17:59:44.062Z,6.54
2023-04-15T18:02:11.835Z,6.45
2023-04-15T18:04:39.703Z,6.38
2023-04-15T18:07:07.103Z,6.24
2023-04-15T18:09:34.094Z,6.20
2023-04-15T18:12:02.153Z,6.13
2023-04-15T18:14:34.789Z,6.07
2023-04-15T18:17:03.207Z,6.00
2023-04-15T18:19:31.028Z,5.97
2023-04-15T18:22:00.279Z,5.91
2023-04-15T18:24:28.088Z,5.90
2023-04-15T18:26:56.619Z,5.86
2023-04-15T18:29:23.625Z,5.85
2023-04-15T18:31:51.631Z,5.84
2023-04-15T18:34:18.657Z,5.86
2023-04-15T18:36:46.298Z,5.83
2023-04-15T18:39:13.229Z,5.79
2023-04-15T18:41:40.472Z,5.75
2023-04-15T18:44:07.572Z,5.69
2023-04-15T18:46:34.845Z,5.61
2023-04-15T18:49:01.750Z,5.53
2023-04-15T18:51:28.939Z,5.45
2023-04-15T18:53:56.090Z,5.46
2023-04-15T18:56:23.277Z,5.49
2023-04-15T18:59:10.248Z,5.52
2023-04-15T19:01:37.318Z,5.56
2023-04-15T19:04:04.281Z,5.56
2023-04-15T19:06:32.098Z,5.58
2023-04-15T19:08:59.095Z,5.62
2023-04-15T19:11:26.414Z,5.72
2023-04-15T19:13:53.392Z,5.82
2023-04-15T19:16:21.143Z,5.81
2023-04-15T19:18:48.133Z,5.72
2023-04-15T19:21:15.658Z,5.63
2023-04-15T19:23:45.332Z,5.56
2023-04-15T19:26:12.533Z,5.50
2023-04-15T19:28:39.735Z,5.44
2023-04-15T19:31:07.502Z,5.39
2023-04-15T19:33:34.505Z,5.39
2023-04-15T19:36:04.370Z,5.41
2023-04-15T19:38:32.085Z,5.45
2023-04-15T19:40:59.374Z,5.54
2023-04-15T19:43:26.314Z,5.69
2023-04-15T19:45:54.895Z,5.84
2023-04-15T19:48:23.009Z,6.04
2023-04-15T19:50:50.619Z,6.31
2023-04-15T19:53:17.765Z,6.71
2023-04-15T19:55:45.069Z,7.00
2023-04-15T19:58:11.962Z,7.22
2023-04-15T20:00:39.194Z,7.43
2023-04-15T20:03:06.456Z,7.57
2023-04-15T20:05:33.831Z,7.61
2023-04-15T20:08:01.633Z,7.68
2023-04-15T20:10:29.806Z,7.70
2023-04-15T20:12:56.628Z,7.67
2023-04-15T20:15:24.303Z,7.59
2023-04-15T20:17:51.393Z,7.36
2023-04-15T20:20:18.813Z,7.20
2023-04-15T20:22:45.900Z,7.04
2023-04-15T20:25:13.339Z,6.96
2023-04-15T20:27:40.515Z,6.92
2023-04-15T20:30:08.249Z,6.84
2023-04-15T20:32:36.007Z,6.69
2023-04-15T20:35:05.220Z,6.49
2023-04-15T20:37:33.544Z,6.25
2023-04-15T20:40:01.453Z,6.08
2023-04-15T20:42:32.770Z,5.94
2023-04-15T20:45:00.537Z,5.86
2023-04-15T20:47:27.473Z,5.77
2023-04-15T20:49:54.700Z,5.69
2023-04-15T20:52:21.953Z,5.60
2023-04-15T20:54:49.099Z,5.53
2023-04-15T20:57:16.899Z,5.49
2023-04-15T20:59:44.049Z,5.41
2023-04-15T21:02:10.986Z,5.26
2023-04-15T21:04:38.935Z,5.16
2023-04-15T21:07:06.028Z,5.05
2023-04-15T21:09:33.329Z,4.98
2023-04-15T21:12:01.904Z,4.88
2023-04-15T21:14:29.526Z,4.83
2023-04-15T21:16:59.554Z,4.78
2023-04-15T21:19:26.942Z,4.73
2023-04-15T21:21:53.832Z,4.69
2023-04-15T21:24:21.361Z,4.64
2023-04-15T21:26:48.307Z,4.61
2023-04-15T21:29:15.488Z,4.58
2023-04-15T21:31:42.654Z,4.57
2023-04-15T21:34:10.412Z,4.56
2023-04-15T21:36:38.453Z,4.55
2023-04-15T21:39:06.148Z,4.57
2023-04-15T21:41:33.222Z,4.57
2023-04-15T21:44:00.410Z,4.51
2023-04-15T21:46:32.828Z,4.43
2023-04-15T21:49:02.299Z,4.32
2023-04-15T21:51:29.151Z,4.28
2023-04-15T21:53:56.251Z,4.24
2023-04-15T21:56:24.473Z,4.17
2023-04-15T21:58:56.911Z,4.11
2023-04-15T22:01:24.589Z,4.05
2023-04-15T22:03:52.327Z,3.99
2023-04-15T22:06:19.393Z,3.95
2023-04-15T22:08:56.085Z,3.93
2023-04-15T22:11:27.657Z,3.91
2023-04-15T22:13:56.652Z,3.93
2023-04-15T22:16:25.591Z,3.94
2023-04-15T22:18:52.814Z,3.93
2023-04-15T22:21:19.888Z,3.95
2023-04-15T22:23:48.152Z,3.92
2023-04-15T22:26:15.437Z,3.89
2023-04-15T22:28:43.676Z,3.84
2023-04-15T22:31:10.584Z,3.78
2023-04-15T22:33:38.970Z,3.71
2023-04-15T22:36:06.361Z,3.63
2023-04-15T22:38:33.752Z,3.64
2023-04-15T22:41:00.750Z,3.71
2023-04-15T22:43:28.019Z,3.73
2023-04-15T22:45:55.213Z,3.75
2023-04-15T22:48:22.986Z,3.74
2023-04-15T22:50:50.171Z,3.67
2023-04-15T22:53:17.912Z,3.54
2023-04-15T22:55:48.303Z,3.45
2023-04-15T22:58:17.174Z,3.33
2023-04-15T23:00:44.647Z,3.26
2023-04-15T23:03:12.347Z,3.19
2023-04-15T23:05:41.389Z,3.13
2023-04-15T23:08:08.658Z,3.08
2023-04-15T23:10:35.590Z,3.05
2023-04-15T23:13:02.698Z,3.00
2023-04-15T23:15:29.555Z,2.95
2023-04-15T23:17:56.867Z,2.93
2023-04-15T23:20:23.769Z,2.91
2023-04-15T23:22:50.921Z,2.93
2023-04-15T23:25:17.921Z,2.92
2023-04-15T23:27:45.417Z,2.90
2023-04-15T23:30:12.322Z,2.90
2023-04-15T23:32:39.519Z,2.90
2023-04-15T23:35:06.736Z,2.92
2023-04-15T23:37:33.916Z,2.95
2023-04-15T23:40:00.816Z,2.99
2023-04-15T23:42:28.011Z,2.98
2023-04-15T23:44:54.911Z,2.99
2023-04-15T23:47:22.283Z,2.96
2023-04-15T23:49:49.210Z,2.95
2023-04-15T23:52:16.356Z,2.92
2023-04-15T23:54:43.223Z,2.88
2023-04-15T23:57:10.431Z,2.83
2023-04-15T23:59:37.298Z,2.74
